Moccasin, Arizona
Current Conditions -  °F | °C
As of 5:35 AM on Thursday 30 Oct 2014 (Local Time) from KAZC Reporting Station
Clear Clear  
Wind Chill: 32°   Ceiling: Unl
Heat Index: 37°   Visibility: 10mi
Dew Point: 22°   Wind: 7mph
Humidity: 53%   Direction: 130°SE
Pressure: 30.27"   Gusts: NA
Location:  36.9484°N, 112.529°W
Report Text: KAZC 301235Z AUTO 13006KT 10SM CLR 03/M06 A3027 RMK AO2 T00291058
Loading
Personal Weather Stations






























Interactive Weather Map
Tropical Storm Tracking
New forecast layout! Learn more

10-Day Weather Forecast

Advertisements
Track Severe Weather on mobile